Time;durP1;ratioP1;P1;durP2;ratioP2;P2;SDS_P1;SDS_P2;PMS_P1;PMS_P2;Temp;Humidity;BMP_temperature;BMP_pressure;BME280_temperature;BME280_humidity;BME280_pressure;Samples;Min_cycle;Max_cycle;Signal;HPM_P1;HPM_P2
2021/05/15 00:01:06;;;;;;;35.45;19.42;;;;;;;11.69;73.37;97782.00;5070061;28;20094;-76
2021/05/15 00:03:32;;;;;;;32.85;19.50;;;;;;;11.69;73.40;97784.75;5070081;28;20044;-76
2021/05/15 00:05:57;;;;;;;32.33;19.75;;;;;;;11.68;73.14;97786.69;5070000;28;20052;-75
2021/05/15 00:08:23;;;;;;;29.90;19.10;;;;;;;11.63;73.01;97789.59;5070362;28;20023;-75
2021/05/15 00:10:49;;;;;;;29.88;18.23;;;;;;;11.57;73.29;97790.88;5069999;28;20033;-75
2021/05/15 00:13:15;;;;;;;29.73;17.67;;;;;;;11.58;73.50;97793.31;5070244;28;20359;-76
2021/05/15 00:15:41;;;;;;;28.63;17.20;;;;;;;11.55;72.66;97796.69;5070008;28;20028;-73
2021/05/15 00:18:06;;;;;;;27.42;16.90;;;;;;;11.46;72.51;97793.91;5069591;28;20071;-74
2021/05/15 00:20:32;;;;;;;28.92;15.10;;;;;;;11.42;72.45;97801.16;5069645;28;20021;-74
2021/05/15 00:22:57;;;;;;;28.95;16.25;;;;;;;11.40;72.78;97786.13;5068250;28;20025;-75
2021/05/15 00:25:22;;;;;;;24.10;14.82;;;;;;;11.30;73.06;97792.72;5069939;28;20032;-75
2021/05/15 00:27:48;;;;;;;20.95;14.07;;;;;;;11.20;72.57;97795.75;5069638;28;20112;-75
2021/05/15 00:30:15;;;;;;;23.60;14.48;;;;;;;11.11;72.70;97795.72;5070011;28;20504;-75
2021/05/15 00:32:41;;;;;;;25.40;14.48;;;;;;;11.06;72.78;97793.13;5068551;28;20021;-75
2021/05/15 00:35:08;;;;;;;21.85;13.88;;;;;;;11.02;72.93;97798.41;5069655;28;20478;-74
2021/05/15 00:37:33;;;;;;;22.60;14.23;;;;;;;10.95;73.26;97803.56;5069837;28;20033;-75
2021/05/15 00:39:59;;;;;;;22.35;13.45;;;;;;;10.93;72.74;97797.56;5069696;28;20036;-75
2021/05/15 00:42:24;;;;;;;19.73;12.43;;;;;;;10.87;73.11;97794.97;5069891;28;20028;-74
2021/05/15 00:44:50;;;;;;;20.52;12.70;;;;;;;10.78;72.93;97794.09;5069693;28;20437;-75
2021/05/15 00:47:17;;;;;;;20.98;12.35;;;;;;;10.70;72.67;97801.16;5069850;28;20420;-75
2021/05/15 00:49:44;;;;;;;23.42;14.10;;;;;;;10.63;73.56;97798.03;5069848;28;20518;-74
2021/05/15 00:52:10;;;;;;;22.63;14.10;;;;;;;10.59;73.90;97802.53;5069553;28;20112;-75
2021/05/15 00:54:37;;;;;;;22.23;13.43;;;;;;;10.54;73.76;97799.91;5069889;28;20087;-74
2021/05/15 00:57:03;;;;;;;23.60;13.32;;;;;;;10.50;74.22;97801.66;5069881;28;20482;-73
2021/05/15 00:59:29;;;;;;;22.35;14.18;;;;;;;10.43;74.15;97797.41;5068547;28;20027;-73
2021/05/15 01:01:54;;;;;;;25.70;14.25;;;;;;;10.41;74.93;97798.84;5069687;28;20040;-73
2021/05/15 01:04:20;;;;;;;25.77;14.15;;;;;;;10.35;74.28;97798.16;5069647;28;20020;-73
2021/05/15 01:06:45;;;;;;;27.02;14.18;;;;;;;10.34;73.78;97801.19;5069272;28;20021;-74
2021/05/15 01:09:11;;;;;;;23.92;13.65;;;;;;;10.29;74.39;97799.41;5069468;28;20058;-73
2021/05/15 01:11:36;;;;;;;24.50;14.60;;;;;;;10.24;74.72;97805.78;5072727;28;20025;-73
2021/05/15 01:14:03;;;;;;;20.77;13.50;;;;;;;10.22;74.65;97804.50;5073378;28;20028;-73
2021/05/15 01:16:32;;;;;;;26.45;15.15;;;;;;;10.21;74.16;97805.59;5071959;28;20119;-73
2021/05/15 01:18:58;;;;;;;23.45;14.68;;;;;;;10.20;74.84;97807.53;5072564;28;20052;-73
2021/05/15 01:21:24;;;;;;;27.75;15.48;;;;;;;10.16;74.94;97806.56;5073475;28;20025;-72
2021/05/15 01:23:51;;;;;;;25.27;15.38;;;;;;;10.15;75.32;97809.59;5073239;28;20494;-73
2021/05/15 01:26:25;;;;;;;29.05;18.25;;;;;;;10.14;74.74;97806.06;5073273;28;20055;-73
2021/05/15 01:28:53;;;;;;;29.23;16.80;;;;;;;10.11;75.38;97799.25;5073138;28;20115;-73
2021/05/15 01:31:19;;;;;;;29.52;17.00;;;;;;;10.09;75.45;97806.16;5073189;28;20095;-72
2021/05/15 01:33:45;;;;;;;30.75;18.50;;;;;;;10.06;74.92;97804.84;5072259;28;20108;-73
2021/05/15 01:36:10;;;;;;;25.35;15.18;;;;;;;10.05;75.03;97803.22;5073130;28;20100;-73
2021/05/15 01:38:37;;;;;;;29.40;16.73;;;;;;;10.07;75.85;97811.94;5074238;28;20470;-73
2021/05/15 01:41:03;;;;;;;27.20;16.42;;;;;;;10.07;75.53;97802.91;5074293;28;20035;-73
2021/05/15 01:43:28;;;;;;;26.65;16.08;;;;;;;10.06;75.48;97804.03;5074064;28;20094;-73
2021/05/15 01:45:54;;;;;;;28.88;15.90;;;;;;;10.06;75.36;97798.56;5074207;28;20469;-73
2021/05/15 01:48:19;;;;;;;27.42;16.17;;;;;;;10.06;75.23;97804.03;5074062;28;20526;-73
2021/05/15 01:51:14;;;;;;;26.85;15.23;;;;;;;10.07;75.69;97795.50;5074044;28;20025;-73
2021/05/15 01:53:41;;;;;;;26.38;16.80;;;;;;;10.12;74.84;97800.84;5064535;28;20042;-73
2021/05/15 01:56:09;;;;;;;26.52;15.88;;;;;;;10.16;75.16;97795.59;5073950;28;20043;-73
2021/05/15 01:58:35;;;;;;;25.25;15.88;;;;;;;10.18;74.84;97798.00;5070055;28;20032;-73
2021/05/15 02:01:01;;;;;;;28.63;15.88;;;;;;;10.18;74.85;97795.25;5073694;28;20048;-73
2021/05/15 02:03:26;;;;;;;28.80;16.58;;;;;;;10.21;74.85;97808.34;5073557;28;20470;-74
2021/05/15 02:05:53;;;;;;;28.63;16.02;;;;;;;10.19;75.70;97797.69;5073758;28;20024;-73
2021/05/15 02:08:20;;;;;;;28.25;16.17;;;;;;;10.15;74.93;97799.44;5073493;28;20025;-73
2021/05/15 02:10:46;;;;;;;28.48;16.02;;;;;;;10.19;74.81;97796.88;5073702;28;20023;-73
2021/05/15 02:13:12;;;;;;;26.92;16.35;;;;;;;10.20;74.92;97804.78;5073674;28;20021;-73
2021/05/15 02:15:38;;;;;;;28.00;16.80;;;;;;;10.17;74.86;97813.66;5072299;28;20027;-73
2021/05/15 02:18:05;;;;;;;28.00;16.63;;;;;;;10.12;75.21;97811.81;5073472;28;20024;-73
2021/05/15 02:20:31;;;;;;;29.75;16.60;;;;;;;10.06;75.29;97807.56;5073399;28;20021;-73
2021/05/15 02:22:57;;;;;;;25.95;15.68;;;;;;;10.00;75.08;97805.25;5073382;28;20039;-73
2021/05/15 02:25:24;;;;;;;26.40;16.70;;;;;;;9.96;75.58;97805.09;5073366;28;20033;-73
2021/05/15 02:27:49;;;;;;;31.02;17.83;;;;;;;9.93;75.39;97808.44;5073173;28;20051;-73
2021/05/15 02:30:15;;;;;;;30.27;17.42;;;;;;;9.87;75.40;97802.25;5073347;28;20462;-74
2021/05/15 02:32:41;;;;;;;29.05;17.90;;;;;;;9.85;75.80;97806.41;5073167;28;20024;-74
2021/05/15 02:35:07;;;;;;;28.08;17.02;;;;;;;9.81;75.78;97811.69;5072819;28;20028;-74
2021/05/15 02:37:32;;;;;;;30.25;16.95;;;;;;;9.77;75.76;97805.22;5073113;28;20024;-73
2021/05/15 02:39:58;;;;;;;30.77;18.65;;;;;;;9.77;75.70;97805.22;5072957;28;20074;-73
2021/05/15 02:42:24;;;;;;;30.52;18.38;;;;;;;9.78;75.85;97806.84;5073005;28;20029;-73
2021/05/15 02:44:51;;;;;;;31.33;18.13;;;;;;;9.78;75.50;97804.91;5071619;28;20048;-74
2021/05/15 02:47:17;;;;;;;32.10;18.60;;;;;;;9.79;76.02;97813.91;5071493;28;20029;-73
2021/05/15 02:49:42;;;;;;;31.15;18.90;;;;;;;9.79;75.65;97805.69;5072898;28;20077;-74
2021/05/15 02:52:07;;;;;;;31.60;19.13;;;;;;;9.78;76.33;97804.09;5072531;28;20028;-73
2021/05/15 02:54:33;;;;;;;36.22;19.83;;;;;;;9.81;75.71;97798.00;5072761;28;20029;-73
2021/05/15 02:56:59;;;;;;;32.58;20.42;;;;;;;9.78;76.15;97804.91;5072779;28;20446;-73
2021/05/15 02:59:24;;;;;;;31.55;19.13;;;;;;;9.81;76.31;97806.22;5072582;28;20035;-73
2021/05/15 03:01:49;;;;;;;32.05;19.00;;;;;;;9.78;76.30;97810.38;5072372;28;20115;-73
2021/05/15 03:04:15;;;;;;;34.70;21.48;;;;;;;9.75;75.90;97804.72;5072605;28;20043;-73
2021/05/15 03:06:41;;;;;;;31.30;19.95;;;;;;;9.75;76.42;97810.19;5072544;28;20371;-73
2021/05/15 03:09:06;;;;;;;40.05;20.60;;;;;;;9.73;75.84;97813.22;5072347;28;20386;-73
2021/05/15 03:11:31;;;;;;;33.33;19.95;;;;;;;9.74;76.20;97811.31;5072173;28;20608;-73
2021/05/15 03:13:57;;;;;;;34.17;19.88;;;;;;;9.75;76.13;97813.72;5072267;28;20037;-73
2021/05/15 03:16:22;;;;;;;35.35;21.38;;;;;;;9.74;76.51;97814.06;5072143;28;20024;-73
2021/05/15 03:18:47;;;;;;;37.90;20.77;;;;;;;9.75;76.51;97813.72;5072052;28;20395;-73
2021/05/15 03:21:13;;;;;;;34.08;20.95;;;;;;;9.73;76.09;97815.97;5067969;28;20024;-73
2021/05/15 03:23:38;;;;;;;35.90;20.88;;;;;;;9.74;76.27;97817.59;5072169;28;20474;-73
2021/05/15 03:26:03;;;;;;;36.17;20.80;;;;;;;9.75;75.87;97813.72;5070771;28;20481;-73
2021/05/15 03:28:29;;;;;;;36.40;21.48;;;;;;;9.79;76.28;97817.47;5072238;28;20535;-74
2021/05/15 03:30:54;;;;;;;32.80;19.92;;;;;;;9.79;76.00;97819.41;5071862;28;20465;-73
2021/05/15 03:33:19;;;;;;;34.15;20.75;;;;;;;9.77;75.64;97824.41;5071463;28;20028;-72
2021/05/15 03:35:45;;;;;;;34.55;20.35;;;;;;;9.77;76.05;97819.72;5072189;28;20032;-73
2021/05/15 03:38:10;;;;;;;35.35;21.63;;;;;;;9.75;76.24;97819.22;5071669;28;20032;-73
2021/05/15 03:40:36;;;;;;;36.10;20.75;;;;;;;9.73;76.24;97824.19;5071959;28;20374;-73
2021/05/15 03:43:02;;;;;;;36.35;22.30;;;;;;;9.72;76.13;97825.28;5071889;28;20062;-73
2021/05/15 03:45:28;;;;;;;36.10;22.27;;;;;;;9.72;76.34;97830.78;5071779;28;21357;-73
2021/05/15 03:47:53;;;;;;;35.72;21.73;;;;;;;9.72;76.15;97833.50;5072446;28;20021;-74
2021/05/15 03:50:21;;;;;;;33.22;21.65;;;;;;;9.71;75.60;97831.88;5084693;28;20026;-73
2021/05/15 03:52:47;;;;;;;34.83;21.60;;;;;;;9.69;76.08;97828.66;5093390;28;20024;-73
2021/05/15 03:55:12;;;;;;;36.00;22.02;;;;;;;9.67;75.93;97833.63;5092143;28;20069;-73
2021/05/15 03:57:38;;;;;;;37.65;22.27;;;;;;;9.66;76.16;97832.00;5091435;28;20039;-73
2021/05/15 04:00:04;;;;;;;36.58;22.33;;;;;;;9.63;76.24;97835.34;5093350;28;20034;-73
2021/05/15 04:02:30;;;;;;;37.42;22.15;;;;;;;9.63;75.88;97833.44;5080362;28;20105;-74
2021/05/15 04:04:57;;;;;;;35.85;22.27;;;;;;;9.67;76.20;97839.09;5093064;28;20028;-73
2021/05/15 04:07:22;;;;;;;33.40;20.60;;;;;;;9.67;76.65;97841.84;5085422;28;20033;-73
2021/05/15 04:09:48;;;;;;;34.58;21.27;;;;;;;9.70;76.26;97843.16;5072672;28;20020;-74
2021/05/15 04:12:15;;;;;;;35.15;21.88;;;;;;;9.73;76.85;97837.06;5072811;28;20024;-73
2021/05/15 04:14:45;;;;;;;34.63;20.90;;;;;;;9.74;77.05;97841.44;5071015;28;20047;-73
2021/05/15 04:19:35;;;;;;;37.70;22.65;;;;;;;9.80;76.64;97843.75;5072984;28;20037;-74
2021/05/15 04:22:02;;;;;;;36.38;20.85;;;;;;;9.84;76.63;97841.19;5072382;28;20028;-74
2021/05/15 04:24:29;;;;;;;35.33;20.83;;;;;;;9.89;77.18;97848.50;5072507;28;20032;-74
2021/05/15 04:26:56;;;;;;;33.67;20.23;;;;;;;9.92;77.04;97842.44;5073527;28;20031;-74
2021/05/15 04:29:23;;;;;;;32.03;20.55;;;;;;;9.95;76.66;97841.81;5091671;28;20028;-73
2021/05/15 04:31:49;;;;;;;33.28;19.30;;;;;;;9.95;76.70;97847.28;5078571;28;20025;-73
2021/05/15 04:34:15;;;;;;;35.42;21.98;;;;;;;10.01;77.15;97847.97;5073535;28;20081;-73
2021/05/15 04:36:41;;;;;;;36.85;21.83;;;;;;;10.07;77.12;97850.28;5072294;28;20111;-74
2021/05/15 04:39:07;;;;;;;37.05;21.67;;;;;;;10.11;77.24;97851.31;5072413;28;20215;-73
2021/05/15 04:41:33;;;;;;;34.13;20.65;;;;;;;10.14;77.56;97844.41;5080944;28;20032;-74
2021/05/15 04:43:58;;;;;;;38.63;21.02;;;;;;;10.17;77.63;97846.53;5090866;28;20039;-74
2021/05/15 04:46:24;;;;;;;39.63;23.60;;;;;;;10.17;77.30;97848.44;5089423;28;20025;-74
2021/05/15 04:48:49;;;;;;;38.10;22.70;;;;;;;10.18;76.92;97850.91;5076569;28;20095;-73
2021/05/15 04:51:15;;;;;;;36.95;21.42;;;;;;;10.22;77.50;97843.66;5083269;28;20389;-74
2021/05/15 04:53:40;;;;;;;35.67;21.23;;;;;;;10.27;77.21;97845.47;5096241;28;20555;-73
2021/05/15 04:56:09;;;;;;;38.70;21.40;;;;;;;10.34;77.60;97842.31;5096356;28;20020;-74
2021/05/15 04:58:34;;;;;;;35.53;21.17;;;;;;;10.38;77.69;97840.56;5096671;28;20108;-74
2021/05/15 05:01:00;;;;;;;41.70;22.77;;;;;;;10.40;77.34;97838.34;5093099;28;20123;-73
2021/05/15 05:03:25;;;;;;;34.20;20.27;;;;;;;10.41;76.77;97846.25;5094802;28;20145;-73
2021/05/15 05:05:51;;;;;;;37.80;21.67;;;;;;;10.44;77.56;97844.84;5096034;28;20492;-74
2021/05/15 05:08:17;;;;;;;34.13;20.35;;;;;;;10.47;77.82;97854.38;5095694;28;20082;-73
2021/05/15 05:10:42;;;;;;;32.67;20.38;;;;;;;10.49;77.72;97849.38;5094659;28;20032;-73
2021/05/15 05:13:08;;;;;;;32.53;19.00;;;;;;;10.56;77.99;97852.50;5076114;28;20074;-74
2021/05/15 05:15:33;;;;;;;33.20;19.58;;;;;;;10.62;77.85;97850.44;5079320;28;20030;-74
2021/05/15 05:17:59;;;;;;;32.70;19.35;;;;;;;10.67;77.70;97858.56;5086415;28;20051;-73
2021/05/15 05:20:25;;;;;;;34.40;20.60;;;;;;;10.70;77.50;97860.66;5076101;28;20070;-73
2021/05/15 05:22:51;;;;;;;28.30;18.90;;;;;;;10.77;77.71;97854.78;5090069;28;20028;-73
2021/05/15 05:25:20;;;;;;;30.67;19.25;;;;;;;10.86;77.43;97869.31;5082681;28;20151;-74
2021/05/15 05:27:48;;;;;;;34.80;20.55;;;;;;;10.95;77.29;97875.69;5078662;28;20059;-74
2021/05/15 05:30:18;;;;;;;31.10;20.17;;;;;;;11.00;77.85;97872.03;5092065;28;20377;-74
2021/05/15 05:32:45;;;;;;;38.25;21.00;;;;;;;11.04;78.15;97869.44;5075466;28;20115;-73
2021/05/15 05:35:11;;;;;;;29.45;18.08;;;;;;;11.09;77.88;97867.38;5075760;28;20017;-74
2021/05/15 05:37:37;;;;;;;30.00;19.00;;;;;;;11.20;77.90;97875.34;5079288;28;20033;-74
2021/05/15 05:40:07;;;;;;;28.05;18.50;;;;;;;11.24;77.15;97871.66;5081540;28;20031;-73
2021/05/15 05:42:32;;;;;;;27.58;17.92;;;;;;;11.31;77.27;97880.25;5091609;28;20025;-74
2021/05/15 05:44:58;;;;;;;25.58;15.50;;;;;;;11.36;76.91;97882.06;5075582;28;20086;-73
2021/05/15 05:47:24;;;;;;;30.00;17.10;;;;;;;11.39;77.07;97881.44;5076618;28;20382;-73
2021/05/15 05:49:49;;;;;;;24.42;16.48;;;;;;;11.44;76.96;97886.75;5075466;28;20020;-74
2021/05/15 05:52:15;;;;;;;24.13;16.25;;;;;;;11.47;77.27;97879.84;5077238;28;20371;-73
2021/05/15 05:54:41;;;;;;;23.00;14.75;;;;;;;11.50;76.69;97890.19;5075299;28;20448;-74
2021/05/15 05:57:06;;;;;;;24.08;15.95;;;;;;;11.52;76.23;97889.88;5076012;28;20077;-74
2021/05/15 05:59:32;;;;;;;25.77;15.23;;;;;;;11.55;76.61;97886.50;5075257;28;20028;-74
2021/05/15 06:01:57;;;;;;;26.88;15.45;;;;;;;11.58;75.96;97892.19;5084665;28;20119;-74
2021/05/15 06:04:22;;;;;;;23.52;15.23;;;;;;;11.63;76.28;97885.72;5093586;28;20401;-73
2021/05/15 06:06:48;;;;;;;24.20;14.52;;;;;;;11.72;76.71;97888.50;5081983;28;20021;-75
2021/05/15 06:09:17;;;;;;;23.35;14.98;;;;;;;11.79;76.44;97882.56;5074664;28;20466;-74
2021/05/15 06:11:43;;;;;;;24.40;15.43;;;;;;;11.86;75.75;97891.13;5075096;28;20029;-74
2021/05/15 06:14:08;;;;;;;24.02;15.15;;;;;;;11.91;75.82;97889.06;5085424;28;20063;-74
2021/05/15 06:16:33;;;;;;;24.83;16.20;;;;;;;11.97;75.76;97892.44;5093441;28;20035;-73
2021/05/15 06:18:58;;;;;;;26.13;15.85;;;;;;;12.03;75.65;97901.38;5094843;28;20027;-74
2021/05/15 06:21:24;;;;;;;25.63;15.10;;;;;;;12.09;75.18;97907.56;5095102;28;20024;-74
2021/05/15 06:23:49;;;;;;;23.88;14.73;;;;;;;12.12;75.43;97896.72;5087428;28;20046;-73
2021/05/15 06:26:14;;;;;;;23.23;14.60;;;;;;;12.19;75.17;97902.56;5075853;28;20528;-73
2021/05/15 06:28:40;;;;;;;23.98;14.77;;;;;;;12.27;75.39;97900.94;5074882;28;20463;-75
2021/05/15 06:31:06;;;;;;;25.85;14.52;;;;;;;12.35;74.81;97896.59;5078732;28;20028;-73
2021/05/15 06:33:32;;;;;;;24.38;13.75;;;;;;;12.42;74.76;97896.13;5091145;28;20387;-74
2021/05/15 06:35:58;;;;;;;20.98;13.07;;;;;;;12.48;74.56;97895.63;5074599;28;20425;-73
2021/05/15 06:38:24;;;;;;;21.67;13.10;;;;;;;12.52;74.07;97895.81;5074593;28;20025;-73
2021/05/15 06:40:50;;;;;;;23.83;14.25;;;;;;;12.59;74.24;97898.06;5075326;28;20024;-73
2021/05/15 06:43:15;;;;;;;22.65;13.90;;;;;;;12.71;74.22;97898.25;5092608;28;20048;-73
2021/05/15 06:45:41;;;;;;;21.08;13.18;;;;;;;12.80;74.27;97900.97;5088993;28;20024;-73
2021/05/15 06:48:06;;;;;;;22.13;13.70;;;;;;;12.86;74.28;97898.84;5094023;28;20373;-73
2021/05/15 06:50:32;;;;;;;22.73;14.15;;;;;;;12.94;73.47;97903.56;5092492;28;20067;-73
2021/05/15 06:52:57;;;;;;;21.77;13.90;;;;;;;12.97;73.39;97902.91;5094221;28;20031;-73
2021/05/15 06:55:23;;;;;;;22.60;13.35;;;;;;;13.02;73.25;97907.44;5093746;28;20107;-73
2021/05/15 06:57:49;;;;;;;19.88;12.05;;;;;;;13.05;72.98;97902.09;5076144;28;20364;-73
2021/05/15 07:00:15;;;;;;;17.55;11.45;;;;;;;13.12;72.43;97904.31;5074051;28;20111;-73
2021/05/15 07:02:41;;;;;;;15.75;10.95;;;;;;;13.21;72.82;97898.81;5061484;28;20048;-73
2021/05/15 07:05:07;;;;;;;14.80;10.82;;;;;;;13.28;72.61;97901.88;5072771;28;20036;-73
2021/05/15 07:07:32;;;;;;;20.80;12.90;;;;;;;13.35;72.30;97893.91;5072529;28;20021;-74
2021/05/15 07:09:57;;;;;;;18.13;12.48;;;;;;;13.42;72.43;97895.38;5073506;28;20017;-74
2021/05/15 07:12:24;;;;;;;19.83;11.75;;;;;;;13.50;72.31;97900.84;5083842;28;20113;-76
2021/05/15 07:14:53;;;;;;;17.48;11.57;;;;;;;13.56;71.87;97890.47;5088662;28;20025;-76
2021/05/15 07:17:25;;;;;;;19.63;11.93;;;;;;;13.60;71.85;97894.19;5067674;28;20030;-76
2021/05/15 07:19:54;;;;;;;15.25;10.98;;;;;;;13.70;71.90;97891.06;5072421;28;20020;-76
2021/05/15 07:22:24;;;;;;;19.15;12.15;;;;;;;13.82;71.77;97897.81;5074974;28;20578;-77
2021/05/15 07:24:49;;;;;;;;;;;;;;;13.89;71.95;97891.78;5073168;28;20035;-77
2021/05/15 07:27:16;;;;;;;18.80;9.73;;;;;;;13.90;71.00;97896.97;5070941;28;19916;-76
2021/05/15 07:29:41;;;;;;;18.77;9.02;;;;;;;13.92;70.71;97900.22;5063151;28;20063;-77
2021/05/15 07:32:07;;;;;;;15.27;9.10;;;;;;;13.97;70.72;97894.50;5053400;28;20017;-76
2021/05/15 07:34:32;;;;;;;14.27;9.52;;;;;;;14.02;70.21;97893.50;5070019;28;20032;-76
2021/05/15 07:36:58;;;;;;;15.50;9.18;;;;;;;14.08;70.17;97896.88;5052001;28;20029;-75
2021/05/15 07:39:23;;;;;;;16.10;8.77;;;;;;;14.13;70.00;97885.66;5038771;28;20029;-74
2021/05/15 07:41:50;;;;;;;13.45;9.05;;;;;;;14.21;69.90;97897.78;5039604;28;21016;-74
2021/05/15 07:44:16;;;;;;;13.10;8.50;;;;;;;14.25;69.10;97899.53;5046066;28;20037;-74
2021/05/15 07:46:42;;;;;;;14.00;8.05;;;;;;;14.31;68.42;97899.34;5044207;28;20029;-74
2021/05/15 07:49:07;;;;;;;12.57;8.13;;;;;;;14.35;68.30;97900.28;5043156;28;20372;-73
2021/05/15 07:51:32;;;;;;;11.05;8.13;;;;;;;14.37;68.50;97900.75;5043687;28;20029;-73
2021/05/15 07:53:58;;;;;;;13.35;8.00;;;;;;;14.44;67.80;97901.84;5044979;28;20032;-73
2021/05/15 07:56:23;;;;;;;10.82;7.57;;;;;;;14.48;67.08;97901.94;5044323;28;20025;-74
2021/05/15 07:58:49;;;;;;;14.32;7.57;;;;;;;14.46;67.27;97896.00;5037023;28;20032;-72
2021/05/15 08:01:15;;;;;;;11.13;7.20;;;;;;;14.54;66.31;97908.09;5037032;28;20140;-71
2021/05/15 08:03:42;;;;;;;10.70;5.75;;;;;;;14.57;66.00;97904.66;5039321;28;20582;-72
2021/05/15 08:06:07;;;;;;;7.32;5.55;;;;;;;14.62;66.80;97898.94;5046635;28;20499;-71
2021/05/15 08:08:33;;;;;;;11.75;7.00;;;;;;;14.71;65.34;97896.94;5043741;28;20053;-71
2021/05/15 08:10:59;;;;;;;11.15;7.10;;;;;;;14.82;64.93;97894.59;5042876;28;20033;-72
2021/05/15 08:13:24;;;;;;;11.55;6.65;;;;;;;14.90;64.93;97892.88;5043831;28;20122;-71
2021/05/15 08:15:52;;;;;;;12.15;6.40;;;;;;;14.98;65.11;97902.22;5043687;28;20048;-72
2021/05/15 08:18:18;;;;;;;11.27;7.45;;;;;;;15.07;65.32;97902.97;5042972;28;20639;-73
2021/05/15 08:20:43;;;;;;;11.15;6.95;;;;;;;15.15;65.55;97902.06;5035740;28;20040;-74
2021/05/15 08:23:09;;;;;;;12.15;7.55;;;;;;;15.24;64.13;97904.75;5036560;28;20029;-73
2021/05/15 08:25:34;;;;;;;11.57;7.55;;;;;;;15.27;63.16;97906.03;5043916;28;20035;-73
2021/05/15 08:28:04;;;;;;;9.68;7.00;;;;;;;15.28;63.04;97916.72;5061896;28;20043;-72
2021/05/15 08:30:32;;;;;;;10.80;6.65;;;;;;;15.29;63.11;97912.00;5049446;28;20017;-74
2021/05/15 08:32:58;;;;;;;11.25;7.22;;;;;;;15.34;61.87;97909.03;5048538;28;20036;-74
2021/05/15 08:35:25;;;;;;;11.88;7.47;;;;;;;15.40;61.32;97910.41;5043853;28;20029;-74
2021/05/15 08:37:52;;;;;;;11.50;6.75;;;;;;;15.38;61.71;97909.16;5043658;28;20032;-74
2021/05/15 08:40:19;;;;;;;11.77;6.45;;;;;;;15.45;62.54;97906.66;5038810;28;20029;-73
2021/05/15 08:42:49;;;;;;;9.40;6.65;;;;;;;15.57;62.41;97914.16;5039275;28;20036;-74
2021/05/15 08:45:16;;;;;;;11.05;5.95;;;;;;;15.63;62.18;97908.03;5038865;28;20033;-74
2021/05/15 08:47:44;;;;;;;10.25;5.53;;;;;;;15.76;62.16;97913.59;5042000;28;20032;-78
2021/05/15 08:50:15;;;;;;;7.85;5.22;;;;;;;15.87;61.43;97908.44;5048419;28;20104;-76
2021/05/15 08:52:43;;;;;;;19.38;11.55;;;;;;;15.92;57.92;97910.97;5046972;28;20025;-79
2021/05/15 08:55:12;;;;;;;12.63;6.72;;;;;;;16.01;60.42;97910.88;5043911;28;20029;-77
2021/05/15 08:57:38;;;;;;;11.50;6.07;;;;;;;16.10;60.39;97921.81;5045234;28;20082;-74
2021/05/15 09:00:12;;;;;;;10.52;7.50;;;;;;;16.21;60.89;97909.13;5044046;28;20048;-73
2021/05/15 09:02:39;;;;;;;9.70;5.93;;;;;;;16.33;60.81;97911.88;5048508;28;20697;-74
2021/05/15 09:05:07;;;;;;;10.07;5.43;;;;;;;16.39;59.70;97909.69;5034805;28;20048;-75
2021/05/15 09:07:33;;;;;;;9.45;5.18;;;;;;;16.39;57.98;97919.94;5054865;28;20029;-76
2021/05/15 09:09:58;;;;;;;6.75;4.68;;;;;;;16.38;58.58;97913.59;5045452;28;20029;-76
2021/05/15 09:12:24;;;;;;;9.75;4.75;;;;;;;16.46;58.79;97911.88;5044875;28;20033;-75
2021/05/15 09:15:01;;;;;;;6.05;4.72;;;;;;;16.57;59.34;97915.75;5043502;28;20033;-76
2021/05/15 09:17:26;;;;;;;6.28;4.40;;;;;;;16.66;58.86;97908.13;5043457;28;20047;-76
2021/05/15 09:19:53;;;;;;;8.48;5.20;;;;;;;16.77;59.17;97905.66;5045229;28;20471;-75
2021/05/15 09:22:25;;;;;;;8.40;4.75;;;;;;;16.88;57.54;97906.00;5040057;28;20036;-74
2021/05/15 09:24:51;;;;;;;9.30;5.47;;;;;;;16.91;57.37;97910.00;5036075;28;20114;-74
2021/05/15 09:27:16;;;;;;;7.38;4.68;;;;;;;16.94;55.83;97903.75;5051227;28;20036;-74
2021/05/15 09:29:47;;;;;;;8.85;4.88;;;;;;;16.94;56.45;97904.56;5056343;28;20028;-74
2021/05/15 09:32:16;;;;;;;7.15;5.25;;;;;;;17.01;55.78;97901.22;5063229;28;20569;-74
2021/05/15 09:34:46;;;;;;;7.82;4.47;;;;;;;17.06;56.12;97902.94;5065596;28;20130;-74
2021/05/15 09:37:12;;;;;;;6.93;4.90;;;;;;;17.10;55.54;97893.56;5065414;28;20023;-75
2021/05/15 09:39:37;;;;;;;5.53;4.47;;;;;;;17.16;55.32;97902.44;5065485;28;20024;-74
2021/05/15 09:42:03;;;;;;;5.13;4.43;;;;;;;17.21;54.37;97904.13;5066665;28;20025;-74
2021/05/15 09:44:33;;;;;;;8.98;4.55;;;;;;;17.24;54.67;97895.94;5059017;28;20838;-74
2021/05/15 09:46:59;;;;;;;5.18;3.70;;;;;;;17.29;53.26;97894.84;5058147;28;20202;-74
2021/05/15 09:49:29;;;;;;;7.32;4.80;;;;;;;17.30;52.97;97899.22;5064380;28;20458;-74
2021/05/15 09:52:06;;;;;;;7.32;4.97;;;;;;;17.31;53.52;97887.00;5066734;28;20432;-74
2021/05/15 09:54:34;;;;;;;6.97;5.13;;;;;;;17.32;53.00;97893.34;5067233;28;20048;-73
2021/05/15 09:57:07;;;;;;;7.32;4.60;;;;;;;17.32;53.07;97890.59;5066617;28;20024;-74
2021/05/15 09:59:34;;;;;;;7.53;4.25;;;;;;;17.39;53.02;97896.28;5066811;28;20477;-74
2021/05/15 10:02:02;;;;;;;8.88;5.10;;;;;;;17.43;52.95;97888.09;5066899;28;20087;-73
2021/05/15 10:04:28;;;;;;;8.10;4.55;;;;;;;17.48;52.73;97893.38;5061547;28;20485;-74
2021/05/15 10:06:56;;;;;;;5.43;3.92;;;;;;;17.51;51.04;97893.44;5058028;28;20024;-74
2021/05/15 10:09:35;;;;;;;7.13;5.10;;;;;;;17.56;52.22;97892.38;5060458;28;20074;-74
2021/05/15 10:12:03;;;;;;;5.30;4.22;;;;;;;17.67;52.16;97884.34;5066619;28;20094;-73
2021/05/15 10:14:30;;;;;;;7.28;4.00;;;;;;;17.73;52.36;97876.56;5062207;28;20025;-75
2021/05/15 10:16:56;;;;;;;4.05;3.60;;;;;;;17.83;52.05;97881.56;5046927;28;20533;-74
2021/05/15 10:19:21;;;;;;;4.43;3.67;;;;;;;17.95;52.16;97883.44;5046535;28;20095;-74
2021/05/15 10:21:47;;;;;;;6.40;3.83;;;;;;;18.03;51.36;97881.66;5046805;28;20459;-74
2021/05/15 10:24:20;;;;;;;4.82;3.60;;;;;;;18.11;51.05;97877.88;5046113;28;20029;-74
2021/05/15 10:26:54;;;;;;;5.45;3.72;;;;;;;18.23;51.61;97868.63;5057220;28;20021;-74
2021/05/15 10:29:20;;;;;;;6.13;4.57;;;;;;;18.36;51.56;97860.97;5058191;28;20033;-74
2021/05/15 10:31:52;;;;;;;7.35;4.78;;;;;;;18.50;51.41;97866.84;5063976;28;20033;-74
2021/05/15 10:34:17;;;;;;;6.60;3.42;;;;;;;18.63;51.04;97859.19;5066241;28;20028;-74
2021/05/15 10:36:48;;;;;;;4.82;3.60;;;;;;;18.65;50.33;97862.41;5065893;28;20463;-74
2021/05/15 10:39:28;;;;;;;11.45;3.67;;;;;;;18.73;50.68;97857.81;5066086;28;20036;-75
2021/05/15 10:41:53;;;;;;;;;;;;;;;18.79;50.77;97861.09;5065720;28;20037;-74
2021/05/15 10:44:18;;;;;;;6.15;3.22;;;;;;;18.89;49.82;97852.19;5064756;28;19912;-75
2021/05/15 10:46:49;;;;;;;6.07;4.28;;;;;;;18.94;48.67;97846.31;5060292;28;20050;-75
2021/05/15 10:49:24;;;;;;;6.20;3.40;;;;;;;18.96;47.84;97838.44;5056083;28;20630;-74
2021/05/15 10:51:54;;;;;;;6.40;3.97;;;;;;;18.94;47.29;97838.00;5060613;28;20024;-74
2021/05/15 10:54:33;;;;;;;6.68;4.28;;;;;;;18.95;48.29;97836.78;5065931;28;20025;-74
2021/05/15 10:57:01;;;;;;;8.03;5.60;;;;;;;18.92;47.34;97831.19;5065482;28;20052;-74
2021/05/15 10:59:26;;;;;;;9.82;5.90;;;;;;;18.89;46.90;97827.19;5065914;28;20081;-74
2021/05/15 11:01:58;;;;;;;9.50;5.18;;;;;;;18.94;47.69;97826.88;5065256;28;20437;-75
2021/05/15 11:04:34;;;;;;;5.60;3.78;;;;;;;19.00;47.55;97828.19;5065565;28;20803;-74
2021/05/15 11:07:06;;;;;;;5.25;4.18;;;;;;;19.04;46.93;97819.94;5061277;28;20028;-74
2021/05/15 11:09:35;;;;;;;7.35;4.45;;;;;;;19.10;46.11;97820.44;5037515;28;20033;-74
2021/05/15 11:12:07;;;;;;;6.65;4.28;;;;;;;19.03;46.05;97815.56;5054989;28;20052;-74
2021/05/15 11:14:39;;;;;;;6.30;4.30;;;;;;;19.09;46.60;97818.81;5064732;28;20028;-75
2021/05/15 11:17:28;;;;;;;8.23;4.00;;;;;;;19.15;46.77;97818.16;5065818;28;20028;-74
2021/05/15 11:20:01;;;;;;;7.80;3.70;;;;;;;19.25;46.77;97810.38;5065437;28;20020;-74
2021/05/15 11:22:49;;;;;;;5.10;3.63;;;;;;;19.25;46.32;97816.75;5064980;28;20017;-74
2021/05/15 11:25:14;;;;;;;5.13;3.30;;;;;;;19.24;46.39;97808.75;5065109;28;20115;-75